createdAt,value
2022-07-25T00:03:40.414Z,0
2022-07-25T00:06:37.184Z,0
2022-07-25T00:09:37.606Z,0
2022-07-25T00:10:39.166Z,0
2022-07-25T00:12:21.077Z,0
2022-07-25T00:14:25.028Z,0
2022-07-25T00:15:30.699Z,0
2022-07-25T00:18:02.561Z,0
2022-07-25T00:20:59.167Z,0
2022-07-25T00:24:37.048Z,0
2022-07-25T00:26:41.344Z,0
2022-07-25T00:27:37.241Z,0
2022-07-25T00:28:48.774Z,0
2022-07-25T00:30:58.459Z,0
2022-07-25T00:31:53.387Z,0
2022-07-25T00:33:36.939Z,0
2022-07-25T00:36:37.332Z,0
2022-07-25T00:39:37.658Z,0
2022-07-25T00:42:16.283Z,0
2022-07-25T00:45:20.209Z,0
2022-07-25T00:48:37.411Z,0
2022-07-25T00:51:37.292Z,0
2022-07-25T00:53:44.547Z,0
2022-07-25T00:54:37.046Z,0
2022-07-25T00:57:39.526Z,0
2022-07-25T00:58:22.684Z,0
2022-07-25T00:59:39.731Z,0
2022-07-25T01:00:53.544Z,0
2022-07-25T01:03:37.637Z,0
2022-07-25T01:05:12.228Z,0
2022-07-25T01:06:37.080Z,0
2022-07-25T01:09:39.178Z,0
2022-07-25T01:10:35.334Z,0
2022-07-25T01:12:37.720Z,0
2022-07-25T01:13:51.534Z,0
2022-07-25T01:15:40.326Z,0
2022-07-25T01:18:35.159Z,0
2022-07-25T01:21:39.003Z,0
2022-07-25T01:23:52.405Z,0
2022-07-25T01:24:37.446Z,0
2022-07-25T01:27:37.754Z,0
2022-07-25T01:29:13.977Z,0
2022-07-25T01:31:41.758Z,0
2022-07-25T01:33:37.597Z,0
2022-07-25T01:36:37.227Z,0
2022-07-25T01:39:37.839Z,0
2022-07-25T01:41:07.502Z,0
2022-07-25T01:42:37.364Z,0
2022-07-25T01:43:26.993Z,0
2022-07-25T01:44:49.602Z,0
2022-07-25T01:45:39.256Z,0
2022-07-25T01:48:37.972Z,0
2022-07-25T01:49:20.767Z,0
2022-07-25T01:50:57.849Z,0
2022-07-25T01:51:37.266Z,0
2022-07-25T01:53:06.791Z,0
2022-07-25T01:54:37.921Z,0
2022-07-25T01:56:34.015Z,0
2022-07-25T01:57:50.450Z,0
2022-07-25T01:59:07.552Z,0
2022-07-25T02:03:37.394Z,0
2022-07-25T02:05:16.646Z,0
2022-07-25T02:06:37.735Z,0
2022-07-25T02:07:27.751Z,0
2022-07-25T02:09:38.814Z,0
2022-07-25T02:11:18.801Z,0
2022-07-25T02:12:37.130Z,0
2022-07-25T02:14:26.639Z,0
2022-07-25T02:15:37.707Z,0
2022-07-25T02:18:37.006Z,0
2022-07-25T02:20:49.980Z,0
2022-07-25T02:21:39.018Z,0
2022-07-25T02:22:32.189Z,0
2022-07-25T02:24:37.240Z,0
2022-07-25T02:27:27.488Z,0
2022-07-25T02:29:27.832Z,0
2022-07-25T02:31:19.775Z,0
2022-07-25T02:33:38.787Z,0
2022-07-25T02:36:37.437Z,0
2022-07-25T02:39:08.154Z,0
2022-07-25T02:41:34.432Z,0
2022-07-25T02:42:37.363Z,0
2022-07-25T02:45:38.284Z,0
2022-07-25T02:48:22.077Z,0
2022-07-25T02:51:00.261Z,0
2022-07-25T02:54:37.460Z,0
2022-07-25T02:57:38.516Z,0
2022-07-25T03:01:48.444Z,0
2022-07-25T03:03:38.005Z,0
2022-07-25T03:04:20.147Z,0
2022-07-25T03:06:36.990Z,0
2022-07-25T03:09:28.159Z,0
2022-07-25T03:12:37.251Z,0
2022-07-25T03:15:37.696Z,0
2022-07-25T03:18:37.234Z,0
2022-07-25T03:20:14.479Z,0
2022-07-25T03:20:58.668Z,0
2022-07-25T03:24:37.414Z,0
2022-07-25T03:27:38.564Z,0
2022-07-25T03:28:45.304Z,0
2022-07-25T03:32:40.829Z,0
2022-07-25T03:33:37.149Z,0
2022-07-25T03:36:37.296Z,0
2022-07-25T03:39:37.786Z,0
2022-07-25T03:41:42.024Z,0
2022-07-25T03:42:36.954Z,0
2022-07-25T03:44:11.750Z,0
2022-07-25T03:45:39.188Z,0
2022-07-25T03:48:38.326Z,0
2022-07-25T03:49:29.281Z,0
2022-07-25T03:50:09.625Z,0
2022-07-25T03:51:37.535Z,0
2022-07-25T03:52:41.892Z,0
2022-07-25T03:54:37.694Z,0
2022-07-25T03:57:38.830Z,0
2022-07-25T04:01:27.206Z,0
2022-07-25T04:02:41.392Z,0
2022-07-25T04:03:37.256Z,0
2022-07-25T04:06:37.392Z,0
2022-07-25T04:12:37.735Z,0
2022-07-25T04:15:31.191Z,0
2022-07-25T04:15:36.941Z,0
2022-07-25T04:17:46.627Z,0
2022-07-25T04:18:29.070Z,0
2022-07-25T04:20:20.631Z,0
2022-07-25T04:21:38.437Z,0
2022-07-25T04:24:37.672Z,0
2022-07-25T04:25:33.267Z,0
2022-07-25T04:27:37.591Z,0
2022-07-25T04:33:40.645Z,0
2022-07-25T04:36:36.782Z,0
2022-07-25T04:39:37.127Z,0
2022-07-25T04:42:09.497Z,0
2022-07-25T04:44:36.051Z,0
2022-07-25T04:45:38.917Z,0
2022-07-25T04:46:28.850Z,0
2022-07-25T04:48:48.870Z,0
2022-07-25T04:50:14.126Z,0
2022-07-25T04:51:37.476Z,0
2022-07-25T04:54:10.898Z,0
2022-07-25T04:57:19.697Z,0
2022-07-25T04:57:39.133Z,0
2022-07-25T04:59:13.961Z,0
2022-07-25T04:59:59.170Z,0
2022-07-25T05:03:37.568Z,0
2022-07-25T05:06:27.962Z,0
2022-07-25T05:09:43.557Z,0
2022-07-25T05:10:41.187Z,0
2022-07-25T05:12:08.260Z,0
2022-07-25T05:15:37.528Z,0
2022-07-25T05:16:44.098Z,0
2022-07-25T05:18:37.285Z,0
2022-07-25T05:20:28.552Z,0
2022-07-25T05:21:40.121Z,0
2022-07-25T05:24:37.579Z,0
2022-07-25T05:25:30.812Z,0
2022-07-25T05:27:38.228Z,0
2022-07-25T05:29:35.905Z,0
2022-07-25T05:33:37.170Z,0
2022-07-25T05:36:37.930Z,0
2022-07-25T05:39:37.289Z,0
2022-07-25T05:41:09.083Z,0
2022-07-25T05:42:37.528Z,0
2022-07-25T05:44:29.033Z,0
2022-07-25T05:45:38.653Z,0
2022-07-25T05:48:37.938Z,0
2022-07-25T05:50:40.895Z,0
2022-07-25T05:51:37.634Z,0
2022-07-25T05:52:22.190Z,0
2022-07-25T05:53:48.280Z,0
2022-07-25T05:54:31.764Z,0
2022-07-25T05:57:57.029Z,0
2022-07-25T06:27:39.873Z,0
2022-07-25T06:29:11.231Z,0
2022-07-25T06:33:37.923Z,0
2022-07-25T06:36:35.692Z,0
2022-07-25T06:39:45.983Z,0
2022-07-25T06:40:18.118Z,0
2022-07-25T06:42:37.672Z,0
2022-07-25T06:45:39.666Z,0
2022-07-25T06:48:37.665Z,0
2022-07-25T06:51:20.390Z,0
2022-07-25T06:54:37.316Z,0
2022-07-25T06:57:37.662Z,0
2022-07-25T07:03:37.531Z,0
2022-07-25T07:05:56.211Z,0
2022-07-25T07:06:37.611Z,0
2022-07-25T07:09:38.801Z,0
2022-07-25T07:12:13.355Z,0
2022-07-25T07:15:38.649Z,0
2022-07-25T07:18:37.281Z,0
2022-07-25T07:19:50.383Z,0
2022-07-25T07:21:41.027Z,0
2022-07-25T07:23:25.453Z,0
2022-07-25T07:24:48.672Z,0
2022-07-25T07:25:22.106Z,0
2022-07-25T07:26:45.563Z,0
2022-07-25T07:27:37.444Z,0
2022-07-25T07:33:35.907Z,0
2022-07-25T07:36:37.153Z,0
2022-07-25T07:39:18.290Z,0
2022-07-25T07:41:59.217Z,0
2022-07-25T07:45:05.554Z,0
2022-07-25T07:48:37.238Z,0
2022-07-25T07:51:38.003Z,0
2022-07-25T07:54:37.092Z,0
2022-07-25T07:55:36.374Z,0
2022-07-25T07:57:39.193Z,0
2022-07-25T07:59:44.197Z,0
2022-07-25T08:03:37.286Z,0
2022-07-25T08:06:37.475Z,0
2022-07-25T08:09:39.181Z,0
2022-07-25T08:10:21.144Z,0
2022-07-25T08:12:37.774Z,0
2022-07-25T08:13:32.102Z,0
2022-07-25T08:15:37.540Z,0
2022-07-25T08:16:33.701Z,0
2022-07-25T08:18:37.754Z,0
2022-07-25T08:21:39.217Z,0
2022-07-25T08:23:09.017Z,0
2022-07-25T08:24:37.343Z,0
2022-07-25T08:27:37.995Z,0
2022-07-25T08:33:37.703Z,0
2022-07-25T08:34:43.539Z,0
2022-07-25T08:36:38.221Z,0
2022-07-25T08:39:31.425Z,0
2022-07-25T08:41:38.881Z,0
2022-07-25T08:42:37.631Z,0
2022-07-25T08:43:31.261Z,0
2022-07-25T08:45:09.170Z,0
2022-07-25T08:46:54.940Z,0
2022-07-25T08:48:37.519Z,0
2022-07-25T08:51:11.926Z,0
2022-07-25T08:53:49.759Z,0
2022-07-25T08:54:37.359Z,0
2022-07-25T08:57:37.937Z,0
2022-07-25T08:59:16.205Z,0
2022-07-25T09:03:38.091Z,0
2022-07-25T09:06:37.807Z,0
2022-07-25T09:09:38.981Z,0
2022-07-25T09:10:43.980Z,0
2022-07-25T09:12:40.327Z,0
2022-07-25T09:15:19.807Z,0
2022-07-25T09:15:39.377Z,0
2022-07-25T09:18:18.237Z,0
2022-07-25T09:21:39.395Z,0
2022-07-25T09:24:34.630Z,0
2022-07-25T09:27:38.855Z,0
2022-07-25T09:29:07.946Z,0
2022-07-25T09:36:38.037Z,0
2022-07-25T09:37:23.021Z,0
2022-07-25T09:39:48.846Z,0
2022-07-25T09:41:13.158Z,0
2022-07-25T09:42:37.927Z,0
2022-07-25T09:45:38.996Z,0
2022-07-25T09:48:37.667Z,0
2022-07-25T09:51:37.052Z,0
2022-07-25T09:54:29.392Z,0
2022-07-25T09:55:55.022Z,0
2022-07-25T09:57:37.600Z,0
2022-07-25T09:59:29.422Z,0
2022-07-25T10:02:23.670Z,0
2022-07-25T10:03:37.187Z,0
2022-07-25T10:06:37.771Z,0
2022-07-25T10:09:38.776Z,0
2022-07-25T10:17:31.161Z,0
2022-07-25T10:18:37.118Z,0
2022-07-25T10:20:09.376Z,0
2022-07-25T10:20:56.084Z,0
2022-07-25T10:25:27.367Z,0
2022-07-25T10:27:37.084Z,0
2022-07-25T10:30:55.457Z,0
2022-07-25T10:33:46.969Z,0
2022-07-25T10:36:30.989Z,0
2022-07-25T10:39:37.522Z,0
2022-07-25T10:42:37.162Z,0
2022-07-25T10:45:10.373Z,0
2022-07-25T10:45:39.812Z,0
2022-07-25T10:47:42.329Z,0
2022-07-25T10:48:37.831Z,0
2022-07-25T10:51:42.811Z,0
2022-07-25T10:53:51.885Z,0
2022-07-25T10:54:37.022Z,0
2022-07-25T10:58:18.924Z,0
2022-07-25T10:58:47.390Z,0
2022-07-25T11:00:19.945Z,0
2022-07-25T11:04:11.016Z,0
2022-07-25T11:17:37.981Z,0
2022-07-25T11:24:39.770Z,0
2022-07-25T11:27:36.922Z,0
2022-07-25T11:30:06.121Z,0
2022-07-25T11:33:39.678Z,0
2022-07-25T11:35:45.654Z,0
2022-07-25T11:36:42.473Z,0
2022-07-25T11:38:09.684Z,0
2022-07-25T11:39:38.148Z,0
2022-07-25T11:42:37.734Z,0
2022-07-25T11:43:42.572Z,0
2022-07-25T11:45:39.074Z,0
2022-07-25T11:47:31.886Z,0
2022-07-25T11:48:37.296Z,0
2022-07-25T11:50:15.432Z,0
2022-07-25T11:51:37.092Z,0
2022-07-25T11:54:38.028Z,0
2022-07-25T11:57:39.020Z,0
2022-07-25T12:03:38.618Z,0
2022-07-25T12:04:18.073Z,0
2022-07-25T12:06:37.438Z,0
2022-07-25T12:07:59.551Z,2.4
2022-07-25T12:09:37.339Z,2.4
2022-07-25T12:11:53.273Z,2.4
2022-07-25T12:12:37.175Z,0
2022-07-25T12:13:44.100Z,0
2022-07-25T12:14:36.087Z,0
2022-07-25T12:18:42.191Z,0
2022-07-25T12:20:35.244Z,0
2022-07-25T12:21:38.777Z,0
2022-07-25T12:22:38.297Z,0
2022-07-25T12:23:41.132Z,0
2022-07-25T12:24:37.274Z,0
2022-07-25T12:27:37.521Z,0
2022-07-25T12:33:38.220Z,0
2022-07-25T12:36:15.086Z,0
2022-07-25T12:39:37.448Z,0
2022-07-25T12:42:38.286Z,0
2022-07-25T12:45:11.997Z,0
2022-07-25T12:48:38.149Z,0
2022-07-25T12:49:42.230Z,0
2022-07-25T12:51:37.315Z,0
2022-07-25T12:54:01.739Z,0
2022-07-25T12:57:21.496Z,0
2022-07-25T13:00:43.904Z,0
2022-07-25T13:06:39.778Z,0
2022-07-25T13:08:01.957Z,0
2022-07-25T13:09:49.130Z,0
2022-07-25T13:11:07.776Z,0
2022-07-25T13:12:37.923Z,0
2022-07-25T13:15:40.193Z,0
2022-07-25T13:18:38.095Z,0
2022-07-25T13:19:23.165Z,0
2022-07-25T13:21:39.100Z,0
2022-07-25T13:22:35.520Z,0
2022-07-25T13:24:37.129Z,0
2022-07-25T13:27:37.885Z,0
2022-07-25T13:32:45.262Z,0
2022-07-25T13:33:37.977Z,0
2022-07-25T13:34:45.231Z,0
2022-07-25T13:35:40.623Z,0
2022-07-25T13:39:07.677Z,0
2022-07-25T13:42:37.511Z,0
2022-07-25T13:44:17.843Z,0
2022-07-25T13:45:38.903Z,0
2022-07-25T13:54:37.763Z,1.2
2022-07-25T13:57:38.868Z,1.2
2022-07-25T13:59:58.269Z,0
2022-07-25T14:03:37.258Z,0
2022-07-25T14:06:37.146Z,0
2022-07-25T14:08:23.562Z,0
2022-07-25T14:09:39.208Z,0
2022-07-25T14:12:37.763Z,0
2022-07-25T14:15:13.483Z,0
2022-07-25T14:15:32.970Z,0
2022-07-25T14:18:34.645Z,0
2022-07-25T14:21:38.717Z,0
2022-07-25T14:24:12.529Z,0
2022-07-25T14:27:37.866Z,0
2022-07-25T14:29:42.958Z,0
2022-07-25T14:33:38.621Z,2.4
2022-07-25T14:36:44.242Z,2.4
2022-07-25T14:39:37.572Z,0
2022-07-25T14:42:14.969Z,0
2022-07-25T14:43:46.540Z,0
2022-07-25T14:45:39.419Z,0
2022-07-25T14:48:39.268Z,0
2022-07-25T14:51:37.570Z,0
2022-07-25T14:52:43.818Z,0
2022-07-25T14:54:38.002Z,0
2022-07-25T14:56:26.334Z,0
2022-07-25T14:57:39.057Z,0
2022-07-25T15:02:19.413Z,0
2022-07-25T15:03:37.480Z,0
2022-07-25T15:06:37.662Z,0
2022-07-25T15:09:38.973Z,0
2022-07-25T15:12:37.554Z,0
2022-07-25T15:15:37.542Z,0
2022-07-25T15:17:45.071Z,0
2022-07-25T15:19:18.263Z,0
2022-07-25T15:20:52.514Z,0
2022-07-25T15:21:38.789Z,0
2022-07-25T15:24:04.563Z,0
2022-07-25T15:26:04.385Z,0
2022-07-25T15:27:37.642Z,0
2022-07-25T15:29:22.825Z,0
2022-07-25T15:31:15.739Z,0
2022-07-25T15:33:37.425Z,0
2022-07-25T15:36:30.635Z,0
2022-07-25T15:39:06.374Z,0
2022-07-25T15:42:18.266Z,0
2022-07-25T15:51:39.458Z,0
2022-07-25T15:54:37.714Z,0
2022-07-25T15:57:37.848Z,0
2022-07-25T15:58:39.151Z,0
2022-07-25T16:03:37.423Z,0
2022-07-25T16:05:36.300Z,0
2022-07-25T16:06:37.568Z,0
2022-07-25T16:09:38.993Z,0
2022-07-25T16:11:34.580Z,0
2022-07-25T16:12:37.908Z,0
2022-07-25T16:15:33.656Z,0
2022-07-25T16:17:14.049Z,0
2022-07-25T16:18:43.878Z,0
2022-07-25T16:21:39.268Z,0
2022-07-25T16:24:37.726Z,0
2022-07-25T16:27:33.064Z,0
2022-07-25T16:31:52.962Z,0
2022-07-25T16:33:37.486Z,0
2022-07-25T16:36:37.863Z,0
2022-07-25T16:39:25.917Z,0
2022-07-25T16:42:38.389Z,0
2022-07-25T16:45:11.298Z,0
2022-07-25T16:47:27.340Z,0
2022-07-25T16:48:37.081Z,0
2022-07-25T16:50:34.039Z,0
2022-07-25T16:51:39.034Z,0
2022-07-25T16:54:37.342Z,2.4
2022-07-25T16:56:43.727Z,2.4
2022-07-25T16:57:37.952Z,2.4
2022-07-25T17:00:19.243Z,0
2022-07-25T17:03:37.601Z,0
2022-07-25T17:06:38.561Z,0
2022-07-25T17:09:02.647Z,0
2022-07-25T17:11:32.210Z,0
2022-07-25T17:12:37.237Z,0
2022-07-25T17:15:38.173Z,0
2022-07-25T17:18:37.802Z,0
2022-07-25T17:19:37.591Z,0
2022-07-25T17:21:39.328Z,0
2022-07-25T17:24:36.822Z,0
2022-07-25T17:26:51.844Z,0
2022-07-25T17:27:37.555Z,0
2022-07-25T17:29:01.961Z,0
2022-07-25T17:30:59.128Z,0
2022-07-25T17:33:36.632Z,1.2
2022-07-25T17:35:32.803Z,1.2
2022-07-25T17:36:36.841Z,1.2
2022-07-25T17:37:17.524Z,0
2022-07-25T17:39:37.076Z,0
2022-07-25T17:42:24.847Z,0
2022-07-25T17:45:38.834Z,0
2022-07-25T17:47:25.321Z,0
2022-07-25T17:48:42.851Z,0
2022-07-25T17:49:34.648Z,0
2022-07-25T17:51:08.219Z,0
2022-07-25T17:53:31.244Z,0
2022-07-25T17:54:38.011Z,0
2022-07-25T17:57:39.085Z,0
2022-07-25T18:03:37.412Z,0
2022-07-25T18:06:08.927Z,0
2022-07-25T18:09:38.957Z,0
2022-07-25T18:12:08.710Z,0
2022-07-25T18:14:12.177Z,0
2022-07-25T18:15:37.963Z,0
2022-07-25T18:17:25.309Z,0
2022-07-25T18:18:37.856Z,0
2022-07-25T18:21:40.585Z,0
2022-07-25T18:23:13.921Z,0
2022-07-25T18:24:36.919Z,0
2022-07-25T18:27:12.078Z,0
2022-07-25T18:29:29.291Z,0
2022-07-25T18:33:37.459Z,0
2022-07-25T18:35:35.536Z,0
2022-07-25T18:36:37.172Z,0
2022-07-25T18:38:56.498Z,0
2022-07-25T18:39:39.270Z,0
2022-07-25T18:42:34.315Z,0
2022-07-25T18:48:43.962Z,0
2022-07-25T18:51:38.227Z,0
2022-07-25T18:54:38.749Z,0
2022-07-25T18:57:40.477Z,0
2022-07-25T18:58:20.457Z,0
2022-07-25T19:01:30.014Z,0
2022-07-25T19:03:38.485Z,0
2022-07-25T19:06:37.938Z,0
2022-07-25T19:09:44.676Z,0
2022-07-25T19:12:37.322Z,0
2022-07-25T19:14:01.207Z,0
2022-07-25T19:15:38.397Z,0
2022-07-25T19:18:37.951Z,0
2022-07-25T19:21:39.009Z,0
2022-07-25T19:23:52.227Z,0
2022-07-25T19:24:37.116Z,0
2022-07-25T19:25:36.062Z,0
2022-07-25T19:27:38.026Z,0
2022-07-25T19:31:54.172Z,0
2022-07-25T19:33:37.736Z,0
2022-07-25T19:35:30.052Z,0
2022-07-25T19:36:37.175Z,0
2022-07-25T19:39:37.698Z,0
2022-07-25T19:42:37.033Z,0
2022-07-25T19:44:06.582Z,0
2022-07-25T19:47:02.075Z,0
2022-07-25T19:49:26.087Z,0
2022-07-25T20:12:38.703Z,0
2022-07-25T20:15:37.246Z,0
2022-07-25T20:18:37.401Z,0
2022-07-25T20:19:21.160Z,0
2022-07-25T20:21:38.728Z,0
2022-07-25T20:22:48.707Z,0
2022-07-25T20:24:37.487Z,0
2022-07-25T20:26:11.104Z,0
2022-07-25T20:27:39.899Z,0
2022-07-25T20:33:38.441Z,0
2022-07-25T20:35:22.368Z,0
2022-07-25T20:39:37.893Z,0
2022-07-25T20:42:37.342Z,0
2022-07-25T20:45:27.668Z,0
2022-07-25T20:47:21.586Z,0
2022-07-25T20:48:38.409Z,0
2022-07-25T20:50:31.006Z,0
2022-07-25T20:51:37.391Z,0
2022-07-25T20:54:37.418Z,0
2022-07-25T20:56:26.248Z,0
2022-07-25T20:57:11.230Z,0
2022-07-25T20:58:50.798Z,0
2022-07-25T21:03:37.408Z,0
2022-07-25T21:06:34.186Z,0
2022-07-25T21:09:38.828Z,13.5
2022-07-25T21:12:37.038Z,7.3
2022-07-25T21:13:48.198Z,7.3
2022-07-25T21:15:15.100Z,7.3
2022-07-25T21:18:42.430Z,7.3
2022-07-25T21:24:38.007Z,7.3
2022-07-25T21:26:15.643Z,7.3
2022-07-25T21:27:38.494Z,3.7
2022-07-25T21:30:18.513Z,3.7
2022-07-25T21:33:38.126Z,3.7
2022-07-25T21:36:37.830Z,3.7
2022-07-25T21:45:39.781Z,3.7
2022-07-25T21:46:48.443Z,3.7
2022-07-25T21:48:38.312Z,3.7
2022-07-25T21:49:44.504Z,3.7
2022-07-25T21:51:43.301Z,3.7
2022-07-25T21:54:37.657Z,6.1
2022-07-25T21:56:59.343Z,6.1
2022-07-25T21:58:39.389Z,6.1
2022-07-25T21:59:20.923Z,6.1
2022-07-25T22:09:39.123Z,9.8
2022-07-25T22:12:37.517Z,3.7
2022-07-25T22:15:37.866Z,3.7
2022-07-25T22:18:38.685Z,3.7
2022-07-25T22:21:18.889Z,3.7
2022-07-25T22:24:37.560Z,3.7
2022-07-25T22:25:24.768Z,3.7
2022-07-25T22:27:36.907Z,4.9
2022-07-25T22:28:35.968Z,4.9
2022-07-25T22:31:36.621Z,4.9
2022-07-25T22:35:15.778Z,4.9
2022-07-25T22:36:56.224Z,4.9
2022-07-25T22:37:56.485Z,8.6
2022-07-25T22:51:38.789Z,8.6
2022-07-25T23:12:40.101Z,8.6
2022-07-25T23:15:52.251Z,8.6
2022-07-25T23:18:37.019Z,8.6
2022-07-25T23:20:07.567Z,8.6
2022-07-25T23:21:39.828Z,8.6
2022-07-25T23:24:38.909Z,8.6
2022-07-25T23:30:47.966Z,8.6
2022-07-25T23:33:40.491Z,4.9
2022-07-25T23:36:39.264Z,4.9
2022-07-25T23:37:43.424Z,4.9
2022-07-25T23:39:16.091Z,4.9
2022-07-25T23:42:38.638Z,0
2022-07-25T23:45:36.823Z,0
2022-07-25T23:54:37.145Z,0
2022-07-25T23:55:26.670Z,0
2022-07-25T23:57:37.733Z,0
